Time;durP1;ratioP1;P1;durP2;ratioP2;P2;SDS_P1;SDS_P2;PMS_P1;PMS_P2;Temp;Humidity;BMP_temperature;BMP_pressure;BME280_temperature;BME280_humidity;BME280_pressure;Samples;Min_cycle;Max_cycle;Signal;HPM_P1;HPM_P2
2022/03/26 00:02:15;;;;;;;25.87;13.70;;;;;;;8.99;73.19;100303.06;4949873;28;20279;-79
2022/03/26 00:04:51;;;;;;;27.60;14.37;;;;;;;8.97;73.52;100312.81;4935788;28;20244;-79
2022/03/26 00:07:20;;;;;;;28.00;14.70;;;;;;;8.74;75.20;100311.06;4930329;29;20199;-78
2022/03/26 00:09:57;;;;;;;29.50;14.47;;;;;;;8.71;76.75;100316.47;4940124;28;20222;-79
2022/03/26 00:12:26;;;;;;;26.00;13.73;;;;;;;8.78;76.92;100319.72;4969363;28;20203;-79
2022/03/26 00:14:55;;;;;;;28.53;14.17;;;;;;;8.73;77.48;100327.84;4972704;28;20200;-79
2022/03/26 00:17:23;;;;;;;26.53;14.03;;;;;;;8.94;76.33;100325.31;4967470;28;20202;-79
2022/03/26 00:19:55;;;;;;;27.60;15.03;;;;;;;8.80;76.28;100323.19;4964336;28;20207;-79
2022/03/26 00:22:28;;;;;;;32.00;15.20;;;;;;;8.85;76.43;100321.22;5009752;28;20286;-79
2022/03/26 00:24:57;;;;;;;23.97;14.23;;;;;;;8.96;76.16;100320.81;5001578;28;20226;-79
2022/03/26 00:27:26;;;;;;;26.17;14.33;;;;;;;9.05;75.14;100323.97;5006389;28;20198;-79
2022/03/26 00:29:54;;;;;;;26.03;15.33;;;;;;;8.86;76.11;100317.66;5002482;28;20194;-79
2022/03/26 00:32:23;;;;;;;26.43;14.73;;;;;;;8.96;75.48;100321.66;5007623;28;20199;-79
2022/03/26 00:34:52;;;;;;;28.83;16.37;;;;;;;8.98;75.86;100319.00;5008295;28;20195;-79
2022/03/26 00:37:22;;;;;;;27.53;14.63;;;;;;;9.08;75.52;100313.28;5005855;28;20213;-79
2022/03/26 00:39:56;;;;;;;25.70;15.30;;;;;;;8.82;76.26;100314.28;4996960;28;20189;-79
2022/03/26 00:42:25;;;;;;;28.57;15.93;;;;;;;8.96;76.39;100315.53;4971018;28;20199;-79
2022/03/26 00:44:53;;;;;;;23.23;13.53;;;;;;;8.75;77.84;100309.28;4924118;29;20259;-79
2022/03/26 00:47:22;;;;;;;22.33;13.30;;;;;;;8.88;77.91;100307.91;4943487;28;20728;-79
2022/03/26 00:49:51;;;;;;;28.10;13.87;;;;;;;8.92;77.79;100311.28;4931514;28;20205;-79
2022/03/26 00:52:23;;;;;;;23.07;14.13;;;;;;;8.76;80.62;100303.94;4928732;28;20246;-77
2022/03/26 00:54:54;;;;;;;22.00;13.87;;;;;;;8.73;81.76;100300.56;4939255;28;20216;-79
2022/03/26 00:57:22;;;;;;;25.43;15.00;;;;;;;8.70;80.93;100305.97;4932399;29;20194;-79
2022/03/26 00:59:53;;;;;;;29.03;14.60;;;;;;;8.74;80.25;100300.50;4940986;28;20193;-79
2022/03/26 01:02:21;;;;;;;28.40;14.90;;;;;;;8.89;79.90;100307.84;4908502;28;20198;-79
2022/03/26 01:04:50;;;;;;;26.10;14.17;;;;;;;8.89;79.61;100304.34;4903528;28;20228;-79
2022/03/26 01:07:19;;;;;;;26.50;14.43;;;;;;;9.04;78.68;100297.59;4908987;28;20198;-79
2022/03/26 01:09:51;;;;;;;25.27;13.93;;;;;;;9.03;78.77;100299.38;4936374;29;20207;-79
2022/03/26 01:12:20;;;;;;;26.60;14.80;;;;;;;8.92;80.09;100298.09;4951200;29;20208;-79
2022/03/26 01:14:55;;;;;;;26.50;14.93;;;;;;;8.69;80.86;100298.97;4950669;28;20204;-79
2022/03/26 01:17:24;;;;;;;25.87;15.17;;;;;;;8.36;82.96;100298.44;4951394;28;20253;-79
2022/03/26 01:19:54;;;;;;;24.93;15.17;;;;;;;8.45;84.72;100303.38;4952150;28;20208;-79
2022/03/26 01:22:23;;;;;;;25.77;14.20;;;;;;;8.34;86.29;100293.19;4968453;28;20196;-79
2022/03/26 01:24:53;;;;;;;23.47;14.50;;;;;;;8.14;87.14;100295.69;4977387;28;20219;-79
2022/03/26 01:27:23;;;;;;;25.27;14.27;;;;;;;8.21;87.65;100281.34;4977851;28;20203;-78
2022/03/26 01:29:51;;;;;;;26.57;14.30;;;;;;;8.15;88.20;100285.06;4971551;28;20199;-79
2022/03/26 01:32:20;;;;;;;27.27;14.10;;;;;;;8.22;89.52;100280.44;4971618;28;20674;-79
2022/03/26 01:34:50;;;;;;;24.67;13.57;;;;;;;8.14;90.38;100279.84;4970715;28;20234;-79
2022/03/26 01:37:19;;;;;;;25.97;13.93;;;;;;;8.18;90.75;100282.31;4974485;28;20250;-78
2022/03/26 01:39:48;;;;;;;28.70;15.03;;;;;;;8.04;91.66;100277.53;4976935;28;20199;-79
2022/03/26 01:42:20;;;;;;;24.53;13.87;;;;;;;7.95;93.54;100282.28;4978538;28;20192;-79
2022/03/26 01:44:49;;;;;;;26.70;15.27;;;;;;;8.21;93.59;100284.00;4988508;28;20230;-79
2022/03/26 01:47:18;;;;;;;26.03;14.93;;;;;;;7.86;94.47;100277.31;5003811;28;20191;-79
2022/03/26 01:49:48;;;;;;;30.40;14.60;;;;;;;7.61;95.24;100280.78;5002537;28;20226;-78
2022/03/26 01:52:19;;;;;;;26.17;15.43;;;;;;;7.46;97.57;100271.63;5006785;28;20199;-78
2022/03/26 01:54:48;;;;;;;26.13;15.20;;;;;;;7.33;99.19;100282.63;5002893;28;20198;-79
2022/03/26 01:57:20;;;;;;;28.20;14.83;;;;;;;7.17;100.00;100279.63;5000903;28;20231;-78
2022/03/26 01:59:48;;;;;;;32.60;14.80;;;;;;;6.89;100.00;100279.63;5048708;28;20197;-79
2022/03/26 02:02:17;;;;;;;26.50;14.40;;;;;;;6.96;100.00;100289.06;5045411;28;20216;-79
2022/03/26 02:04:46;;;;;;;28.77;14.93;;;;;;;6.82;100.00;100292.13;5048405;28;20216;-79
2022/03/26 02:07:15;;;;;;;26.50;15.40;;;;;;;6.59;100.00;100279.66;5052860;28;20193;-79
2022/03/26 02:09:44;;;;;;;32.43;15.10;;;;;;;6.63;100.00;100295.34;5044658;28;20197;-79
2022/03/26 02:12:27;;;;;;;23.60;14.30;;;;;;;6.41;100.00;100290.72;5047970;28;20204;-79
2022/03/26 02:14:59;;;;;;;24.57;14.40;;;;;;;6.19;100.00;100295.72;5053282;28;20224;-79
2022/03/26 02:17:28;;;;;;;27.20;15.57;;;;;;;6.13;100.00;100295.88;5025544;28;20327;-79
2022/03/26 02:19:59;;;;;;;26.63;14.97;;;;;;;6.18;100.00;100295.78;5024087;28;20366;-79
2022/03/26 02:22:29;;;;;;;31.30;17.03;;;;;;;6.07;100.00;100298.69;5032419;28;20201;-79
2022/03/26 02:24:58;;;;;;;27.70;15.87;;;;;;;6.15;100.00;100294.06;5028409;28;20688;-78
2022/03/26 02:27:29;;;;;;;27.37;17.13;;;;;;;6.13;100.00;100303.78;5028572;28;20260;-79
2022/03/26 02:30:01;;;;;;;27.97;15.73;;;;;;;6.18;100.00;100296.63;5026277;28;20306;-79
2022/03/26 02:32:30;;;;;;;28.97;16.43;;;;;;;6.27;100.00;100293.75;5030921;28;20206;-79
2022/03/26 02:35:00;;;;;;;28.60;16.43;;;;;;;6.37;100.00;100298.72;5032164;28;20198;-79
2022/03/26 02:37:31;;;;;;;25.87;15.50;;;;;;;6.33;100.00;100295.31;5021717;28;20191;-79
2022/03/26 02:40:02;;;;;;;27.87;17.00;;;;;;;6.54;100.00;100296.47;4990959;28;20211;-79
2022/03/26 02:42:31;;;;;;;29.67;17.47;;;;;;;6.74;100.00;100290.63;5003391;28;20188;-79
2022/03/26 02:44:59;;;;;;;35.73;18.67;;;;;;;6.73;100.00;100291.53;4997446;28;20261;-80
2022/03/26 02:47:28;;;;;;;32.53;17.50;;;;;;;7.00;100.00;100288.06;5000265;28;20214;-79
2022/03/26 02:49:57;;;;;;;34.80;17.50;;;;;;;7.13;100.00;100294.66;4991329;28;20202;-78
2022/03/26 02:52:26;;;;;;;33.23;17.90;;;;;;;7.07;100.00;100281.69;4996777;28;20210;-79
2022/03/26 02:54:55;;;;;;;34.03;18.93;;;;;;;7.18;100.00;100294.53;4992551;28;20242;-79
2022/03/26 02:57:25;;;;;;;31.93;18.13;;;;;;;7.28;100.00;100290.69;4990449;28;20203;-79
2022/03/26 02:59:54;;;;;;;32.73;18.37;;;;;;;7.31;100.00;100285.31;4984787;28;20191;-79
2022/03/26 03:02:22;;;;;;;29.73;17.47;;;;;;;7.22;100.00;100287.38;4990017;28;20195;-79
2022/03/26 03:04:50;;;;;;;33.97;19.33;;;;;;;7.36;100.00;100279.91;4986943;28;20543;-78
2022/03/26 03:07:20;;;;;;;37.77;18.40;;;;;;;7.31;100.00;100277.41;4991205;28;20195;-79
2022/03/26 03:10:05;;;;;;;32.67;18.27;;;;;;;7.35;100.00;100273.78;4989449;28;20187;-79
2022/03/26 03:12:35;;;;;;;32.47;18.13;;;;;;;7.36;100.00;100275.50;4988578;28;20195;-78
2022/03/26 03:15:04;;;;;;;35.63;19.00;;;;;;;7.37;100.00;100278.97;4991833;28;20199;-78
2022/03/26 03:17:37;;;;;;;34.20;18.43;;;;;;;7.30;100.00;100293.25;4999884;28;20199;-79
2022/03/26 03:20:07;;;;;;;35.57;18.20;;;;;;;7.20;100.00;100291.84;5001326;28;20695;-79
2022/03/26 03:22:36;;;;;;;33.40;17.67;;;;;;;7.12;100.00;100290.28;5003301;28;20199;-79
2022/03/26 03:25:08;;;;;;;34.20;18.33;;;;;;;6.80;100.00;100286.03;5002960;28;20191;-79
2022/03/26 03:27:37;;;;;;;32.03;18.10;;;;;;;6.77;100.00;100283.50;5000681;28;20245;-79
2022/03/26 03:30:07;;;;;;;38.10;19.80;;;;;;;6.52;100.00;100287.78;4992495;28;20199;-78
2022/03/26 03:32:35;;;;;;;31.73;17.80;;;;;;;6.74;100.00;100283.59;5002245;28;20218;-79
2022/03/26 03:35:05;;;;;;;30.83;18.47;;;;;;;6.66;100.00;100287.34;5000027;28;20195;-79
2022/03/26 03:37:36;;;;;;;39.10;20.07;;;;;;;6.82;100.00;100280.72;5004281;28;20203;-78
2022/03/26 03:40:09;;;;;;;32.90;19.57;;;;;;;7.00;100.00;100289.84;4991945;28;20234;-79
2022/03/26 03:42:37;;;;;;;37.07;20.70;;;;;;;7.08;100.00;100286.06;5001404;28;20191;-79
2022/03/26 03:45:09;;;;;;;39.03;20.40;;;;;;;7.10;100.00;100280.72;4997333;28;20689;-79
2022/03/26 03:47:37;;;;;;;38.17;21.23;;;;;;;7.05;100.00;100274.75;5002224;28;20191;-79
2022/03/26 03:50:06;;;;;;;37.63;20.50;;;;;;;7.20;100.00;100281.28;4999272;28;20603;-79
2022/03/26 03:52:35;;;;;;;37.17;21.40;;;;;;;7.14;100.00;100279.72;5001224;28;20187;-79
2022/03/26 03:55:05;;;;;;;39.40;20.73;;;;;;;7.12;100.00;100278.91;5000579;28;20187;-79
2022/03/26 03:57:40;;;;;;;32.93;18.97;;;;;;;6.84;100.00;100282.38;5001231;28;20199;-79
2022/03/26 04:00:11;;;;;;;36.00;19.83;;;;;;;6.65;100.00;100278.59;5002169;28;20198;-78
2022/03/26 04:02:42;;;;;;;40.10;20.27;;;;;;;6.69;100.00;100277.59;4991323;28;20195;-79
2022/03/26 04:05:11;;;;;;;36.73;20.30;;;;;;;6.60;100.00;100281.38;4998743;28;20241;-79
2022/03/26 04:07:44;;;;;;;36.03;19.83;;;;;;;6.54;100.00;100281.53;4997448;28;20191;-79
2022/03/26 04:10:14;;;;;;;40.93;21.43;;;;;;;6.55;100.00;100270.09;5002359;28;20191;-79
2022/03/26 04:12:45;;;;;;;38.00;21.37;;;;;;;6.50;100.00;100285.19;4995699;28;20191;-79
2022/03/26 04:15:15;;;;;;;38.67;21.93;;;;;;;6.49;100.00;100279.97;5000061;28;20190;-78
2022/03/26 04:17:47;;;;;;;34.47;20.53;;;;;;;6.41;100.00;100274.94;5002537;28;20195;-79
2022/03/26 04:20:16;;;;;;;35.93;20.00;;;;;;;6.14;100.00;100278.34;4999549;28;20209;-79
2022/03/26 04:22:44;;;;;;;33.17;20.50;;;;;;;6.13;100.00;100281.88;4995306;28;20691;-79
2022/03/26 04:25:15;;;;;;;37.10;20.70;;;;;;;6.16;100.00;100284.41;5000439;28;20207;-79
2022/03/26 04:27:46;;;;;;;40.03;21.13;;;;;;;6.13;100.00;100287.13;4999183;28;20290;-79
2022/03/26 04:30:15;;;;;;;38.53;21.37;;;;;;;6.08;100.00;100282.03;5001552;28;20214;-79
2022/03/26 04:32:43;;;;;;;39.17;21.90;;;;;;;6.13;100.00;100285.38;5006210;28;20662;-79
2022/03/26 04:35:12;;;;;;;42.50;22.50;;;;;;;6.09;100.00;100286.38;4999568;28;20701;-79
2022/03/26 04:37:41;;;;;;;37.43;22.07;;;;;;;5.91;100.00;100292.13;4995735;28;20206;-79
2022/03/26 04:40:11;;;;;;;37.60;22.07;;;;;;;5.93;100.00;100299.06;5002703;28;20199;-78
2022/03/26 04:42:40;;;;;;;38.73;22.53;;;;;;;6.02;100.00;100293.56;5005138;28;20222;-78
2022/03/26 04:45:11;;;;;;;41.47;22.47;;;;;;;6.10;100.00;100297.75;4996121;28;20234;-79
2022/03/26 04:47:40;;;;;;;38.87;22.37;;;;;;;6.13;100.00;100300.28;5005373;28;20218;-79
2022/03/26 04:50:10;;;;;;;45.00;23.53;;;;;;;5.98;100.00;100305.06;4998585;28;20199;-79
2022/03/26 04:52:39;;;;;;;43.77;22.90;;;;;;;5.97;100.00;100299.81;5005157;28;20669;-78
2022/03/26 04:55:09;;;;;;;39.03;23.13;;;;;;;5.97;100.00;100310.34;5004365;28;20199;-78
2022/03/26 04:57:39;;;;;;;47.30;23.53;;;;;;;6.21;100.00;100300.94;5004778;28;20339;-78
2022/03/26 05:00:14;;;;;;;40.87;22.53;;;;;;;5.99;100.00;100300.69;4996774;28;20207;-79
2022/03/26 05:02:44;;;;;;;40.93;21.87;;;;;;;6.15;100.00;100307.22;5003705;28;20194;-79
2022/03/26 05:05:14;;;;;;;41.23;21.80;;;;;;;6.16;100.00;100303.69;4993154;28;20191;-79
2022/03/26 05:07:46;;;;;;;39.87;21.37;;;;;;;6.06;100.00;100301.34;4996444;28;20221;-79
2022/03/26 05:10:15;;;;;;;41.13;22.83;;;;;;;5.84;100.00;100314.19;4999609;28;20206;-79
2022/03/26 05:12:44;;;;;;;39.67;21.70;;;;;;;5.84;100.00;100308.91;4993906;28;20199;-79
2022/03/26 05:15:16;;;;;;;40.07;21.47;;;;;;;5.87;100.00;100309.69;5000482;28;20195;-78
2022/03/26 05:17:45;;;;;;;40.50;21.10;;;;;;;5.77;100.00;100305.59;4993626;28;20203;-78
2022/03/26 05:20:14;;;;;;;39.03;21.97;;;;;;;5.55;100.00;100314.91;5069558;28;20192;-79
2022/03/26 05:22:46;;;;;;;38.43;21.23;;;;;;;5.36;100.00;100311.88;5062054;28;20201;-78
2022/03/26 05:25:16;;;;;;;37.20;20.57;;;;;;;5.28;100.00;100319.06;5074037;28;20303;-78
2022/03/26 05:27:45;;;;;;;32.60;18.97;;;;;;;5.21;100.00;100326.25;5064606;28;20212;-79
2022/03/26 05:30:19;;;;;;;31.33;18.67;;;;;;;5.13;100.00;100330.81;5069041;28;20222;-78
2022/03/26 05:32:47;;;;;;;37.30;20.93;;;;;;;4.93;100.00;100330.41;5066745;28;20192;-79
2022/03/26 05:35:16;;;;;;;36.97;20.23;;;;;;;4.96;100.00;100333.81;5070118;28;20197;-78
2022/03/26 05:37:45;;;;;;;34.90;19.50;;;;;;;4.87;100.00;100336.66;5051678;28;20199;-79
2022/03/26 05:40:16;;;;;;;37.90;20.30;;;;;;;4.91;100.00;100334.81;4998883;28;20195;-78
2022/03/26 05:42:46;;;;;;;37.43;19.10;;;;;;;4.73;100.00;100331.69;4993549;28;20282;-78
2022/03/26 05:45:17;;;;;;;33.40;18.47;;;;;;;4.72;100.00;100342.22;5000222;28;20234;-79
2022/03/26 05:47:45;;;;;;;39.13;20.43;;;;;;;4.90;100.00;100339.19;5004062;28;20223;-79
2022/03/26 05:50:14;;;;;;;38.30;21.07;;;;;;;5.00;100.00;100332.84;5000045;28;20195;-78
2022/03/26 05:52:42;;;;;;;43.17;22.37;;;;;;;5.16;100.00;100342.09;5002630;28;20202;-79
2022/03/26 05:55:11;;;;;;;41.50;22.33;;;;;;;5.38;100.00;100346.84;5001233;28;20203;-79
2022/03/26 05:57:40;;;;;;;39.37;21.63;;;;;;;5.53;100.00;100350.91;4997943;28;20200;-78
2022/03/26 06:00:10;;;;;;;39.70;22.40;;;;;;;5.62;100.00;100348.03;5003313;28;20292;-78
2022/03/26 06:02:42;;;;;;;39.53;22.67;;;;;;;5.60;100.00;100342.84;5006398;28;20207;-79
2022/03/26 06:05:11;;;;;;;37.93;21.07;;;;;;;5.92;100.00;100356.94;4999623;28;20195;-78
2022/03/26 06:07:40;;;;;;;37.60;21.80;;;;;;;5.57;100.00;100360.41;4998359;28;20238;-79
2022/03/26 06:10:09;;;;;;;36.23;21.60;;;;;;;5.71;100.00;100360.97;5003044;28;20241;-79
2022/03/26 06:12:43;;;;;;;40.43;22.93;;;;;;;5.75;100.00;100365.22;4998122;28;20653;-79
2022/03/26 06:15:12;;;;;;;41.13;22.30;;;;;;;5.94;100.00;100366.53;4998722;28;20191;-79
2022/03/26 06:18:02;;;;;;;37.53;21.00;;;;;;;5.88;100.00;100369.25;4992860;28;20256;-79
2022/03/26 06:20:30;;;;;;;40.50;22.00;;;;;;;5.91;100.00;100371.88;4999054;28;20199;-78
2022/03/26 06:22:59;;;;;;;38.60;21.90;;;;;;;5.94;100.00;100363.88;4999555;28;20195;-79
2022/03/26 06:25:31;;;;;;;38.03;21.37;;;;;;;6.02;100.00;100366.34;4999086;28;20203;-79
2022/03/26 06:28:00;;;;;;;36.30;20.87;;;;;;;5.93;100.00;100377.09;5001027;28;20227;-79
2022/03/26 06:30:29;;;;;;;38.93;21.23;;;;;;;6.00;100.00;100374.25;4992591;28;20650;-79
2022/03/26 06:32:58;;;;;;;39.73;22.23;;;;;;;6.11;100.00;100370.50;4992765;28;20257;-78
2022/03/26 06:35:30;;;;;;;37.37;21.83;;;;;;;6.26;100.00;100375.31;4998823;28;20542;-79
2022/03/26 06:38:00;;;;;;;41.57;23.23;;;;;;;6.34;100.00;100372.50;4998834;28;20208;-78
2022/03/26 06:40:28;;;;;;;38.50;22.87;;;;;;;6.54;100.00;100378.06;5026002;28;20195;-79
2022/03/26 06:42:57;;;;;;;41.80;22.20;;;;;;;6.53;100.00;100368.44;4999661;28;20207;-79
2022/03/26 06:45:25;;;;;;;38.67;22.27;;;;;;;6.42;100.00;100375.78;5000533;28;20257;-78
2022/03/26 06:47:54;;;;;;;38.83;22.50;;;;;;;6.52;100.00;100377.25;5046947;28;20237;-79
2022/03/26 06:50:22;;;;;;;37.17;22.00;;;;;;;6.65;100.00;100378.63;5041410;28;20189;-79
2022/03/26 06:52:53;;;;;;;37.23;21.47;;;;;;;6.83;100.00;100378.09;5034913;28;20193;-79
2022/03/26 06:55:22;;;;;;;44.93;23.07;;;;;;;6.92;100.00;100382.25;5045396;28;20197;-79
2022/03/26 06:57:51;;;;;;;41.53;23.10;;;;;;;7.13;100.00;100380.72;5049002;28;20256;-79
2022/03/26 07:00:20;;;;;;;40.23;22.73;;;;;;;7.30;100.00;100378.47;5047014;28;20208;-79
2022/03/26 07:02:49;;;;;;;42.23;23.43;;;;;;;7.46;100.00;100379.72;5049405;28;20193;-79
2022/03/26 07:05:19;;;;;;;40.33;22.00;;;;;;;7.72;100.00;100391.19;5045703;28;20197;-79
2022/03/26 07:07:47;;;;;;;36.60;22.67;;;;;;;7.85;100.00;100387.25;5045046;28;20209;-79
2022/03/26 07:10:17;;;;;;;45.67;23.67;;;;;;;7.95;100.00;100395.72;5044977;28;20239;-79
2022/03/26 07:12:45;;;;;;;42.23;23.83;;;;;;;8.02;100.00;100403.38;5008858;28;20211;-79
2022/03/26 07:15:14;;;;;;;42.60;24.03;;;;;;;8.15;100.00;100393.25;4997400;28;20196;-79
2022/03/26 07:17:43;;;;;;;40.70;23.40;;;;;;;8.11;100.00;100390.78;4993988;28;20225;-79
2022/03/26 07:20:12;;;;;;;38.97;23.63;;;;;;;8.05;100.00;100394.50;4996927;28;20191;-79
2022/03/26 07:22:40;;;;;;;39.97;23.30;;;;;;;8.09;100.00;100398.75;4997899;28;20244;-79
2022/03/26 07:25:10;;;;;;;44.67;24.17;;;;;;;8.21;100.00;100395.72;4998290;28;20191;-79
2022/03/26 07:27:40;;;;;;;38.97;23.00;;;;;;;8.38;100.00;100397.78;4998780;28;20216;-79
2022/03/26 07:30:11;;;;;;;41.63;23.53;;;;;;;8.53;100.00;100397.25;5001608;28;20230;-79
2022/03/26 07:32:40;;;;;;;41.30;24.13;;;;;;;8.81;100.00;100406.81;4992528;28;20199;-79
2022/03/26 07:35:10;;;;;;;43.23;24.57;;;;;;;8.93;100.00;100405.50;5030412;28;20198;-79
2022/03/26 07:37:38;;;;;;;50.93;24.40;;;;;;;9.01;100.00;100406.06;5025528;28;20198;-79
2022/03/26 07:40:08;;;;;;;43.07;24.37;;;;;;;9.33;100.00;100408.34;5023934;28;20190;-79
2022/03/26 07:42:38;;;;;;;42.83;23.73;;;;;;;9.40;100.00;100408.97;5028955;28;20198;-79
2022/03/26 07:45:10;;;;;;;45.90;24.20;;;;;;;9.63;100.00;100406.25;5026307;28;20701;-79
2022/03/26 07:47:39;;;;;;;42.13;23.73;;;;;;;9.87;100.00;100411.50;4978529;28;20240;-79
2022/03/26 07:50:09;;;;;;;40.97;25.03;;;;;;;10.05;100.00;100410.75;5026657;28;20194;-80
2022/03/26 07:52:41;;;;;;;40.60;24.53;;;;;;;10.21;100.00;100405.66;5016093;28;20207;-79
2022/03/26 07:55:10;;;;;;;44.23;23.97;;;;;;;10.36;100.00;100402.41;4973824;28;20196;-79
2022/03/26 07:57:39;;;;;;;42.80;25.13;;;;;;;10.54;100.00;100406.91;4969657;28;20199;-79
2022/03/26 08:00:11;;;;;;;43.20;25.17;;;;;;;10.73;100.00;100401.66;4971779;28;20202;-80
2022/03/26 08:02:41;;;;;;;50.97;27.50;;;;;;;10.81;100.00;100402.16;4958322;28;20337;-79
2022/03/26 08:05:10;;;;;;;41.20;25.13;;;;;;;10.85;100.00;100401.09;4969780;28;20208;-79
2022/03/26 08:07:38;;;;;;;48.73;26.43;;;;;;;11.06;100.00;100406.34;4971252;28;20211;-79
2022/03/26 08:10:07;;;;;;;43.50;24.40;;;;;;;11.29;100.00;100403.50;4974779;28;20204;-79
2022/03/26 08:12:36;;;;;;;41.73;24.80;;;;;;;11.49;100.00;100404.34;4966599;28;20196;-79
2022/03/26 08:15:06;;;;;;;39.63;24.37;;;;;;;11.49;100.00;100404.34;4969333;28;20199;-80
2022/03/26 08:17:36;;;;;;;44.63;24.30;;;;;;;11.96;100.00;100407.34;4969642;28;20226;-80
2022/03/26 08:20:07;;;;;;;40.97;24.27;;;;;;;11.81;100.00;100403.69;4969937;28;20260;-79
2022/03/26 08:22:35;;;;;;;44.33;24.93;;;;;;;12.00;100.00;100411.59;4909572;29;20210;-79
2022/03/26 08:25:04;;;;;;;39.63;22.77;;;;;;;12.22;100.00;100401.59;4914956;28;20276;-79
2022/03/26 08:27:33;;;;;;;43.90;23.77;;;;;;;12.32;100.00;100407.31;4915816;28;20198;-80
2022/03/26 08:30:01;;;;;;;40.43;24.70;;;;;;;12.36;100.00;100413.34;4923589;28;20804;-80
2022/03/26 08:32:29;;;;;;;46.03;25.03;;;;;;;12.41;100.00;100404.19;4922392;28;20684;-80
2022/03/26 08:34:59;;;;;;;41.17;24.87;;;;;;;12.76;100.00;100404.16;4922825;28;20217;-79
2022/03/26 08:37:35;;;;;;;38.83;24.00;;;;;;;13.14;100.00;100405.59;4853950;29;20214;-79
2022/03/26 08:40:04;;;;;;;39.33;23.20;;;;;;;13.15;100.00;100406.47;4893627;29;20242;-80
2022/03/26 08:42:33;;;;;;;41.97;23.97;;;;;;;13.35;100.00;100405.41;4892036;29;20275;-80
2022/03/26 08:45:01;;;;;;;41.00;23.13;;;;;;;13.55;99.28;100407.81;4905963;29;20222;-80
2022/03/26 08:47:30;;;;;;;37.17;23.70;;;;;;;13.61;98.33;100403.94;4954027;28;20207;-80
2022/03/26 08:50:00;;;;;;;40.27;23.97;;;;;;;13.72;97.99;100410.38;4985959;28;20336;-79
2022/03/26 08:52:29;;;;;;;40.40;22.77;;;;;;;13.59;97.93;100403.16;4988652;28;20211;-80
2022/03/26 08:54:57;;;;;;;58.70;25.53;;;;;;;13.60;96.09;100412.84;4999163;28;20198;-79
2022/03/26 08:57:25;;;;;;;44.00;23.93;;;;;;;13.93;94.17;100408.28;5019413;28;20225;-80
2022/03/26 08:59:54;;;;;;;41.70;23.10;;;;;;;14.04;93.24;100402.31;4996893;28;20245;-80
2022/03/26 09:02:24;;;;;;;38.67;23.70;;;;;;;14.14;90.96;100403.50;4998659;28;20207;-79
2022/03/26 09:04:52;;;;;;;40.10;23.90;;;;;;;14.29;87.86;100410.59;4989415;28;20192;-80
2022/03/26 09:07:22;;;;;;;38.73;22.73;;;;;;;14.73;83.81;100404.44;5000963;28;20251;-81
2022/03/26 09:09:52;;;;;;;41.60;24.00;;;;;;;14.28;84.28;100414.22;5007792;28;20234;-81
2022/03/26 09:12:20;;;;;;;43.53;24.30;;;;;;;14.81;82.19;100411.97;5008225;28;20195;-80
2022/03/26 09:14:49;;;;;;;38.07;23.00;;;;;;;14.93;81.08;100413.88;5002869;28;20208;-81
2022/03/26 09:17:17;;;;;;;39.63;23.83;;;;;;;14.71;81.92;100409.00;5013168;28;20202;-80
2022/03/26 09:19:45;;;;;;;42.57;23.77;;;;;;;14.87;80.79;100412.44;5009539;28;20199;-80
2022/03/26 09:22:14;;;;;;;45.67;24.40;;;;;;;14.82;81.60;100408.34;5011817;28;20252;-80
2022/03/26 09:24:43;;;;;;;35.47;24.17;;;;;;;15.21;81.41;100410.34;5014135;28;20203;-81
2022/03/26 09:27:13;;;;;;;42.93;25.20;;;;;;;15.63;79.91;100409.47;5007701;28;20195;-81
2022/03/26 09:29:41;;;;;;;41.73;23.87;;;;;;;15.71;77.16;100407.13;5000533;28;20218;-80
2022/03/26 09:32:10;;;;;;;39.63;23.80;;;;;;;15.74;80.39;100408.75;5000725;28;20199;-81
2022/03/26 09:34:40;;;;;;;39.83;23.50;;;;;;;15.58;78.35;100408.84;4997661;28;20195;-80
2022/03/26 09:37:10;;;;;;;42.10;24.63;;;;;;;15.77;78.03;100407.69;4996592;28;20192;-80
2022/03/26 09:39:38;;;;;;;42.30;24.63;;;;;;;15.90;74.24;100409.44;5004428;28;20666;-80
2022/03/26 09:42:09;;;;;;;36.37;22.77;;;;;;;16.07;73.07;100411.00;5000544;28;20214;-80
2022/03/26 09:44:37;;;;;;;39.83;23.73;;;;;;;16.60;70.34;100403.84;5001684;28;20226;-80
2022/03/26 09:47:06;;;;;;;37.10;23.77;;;;;;;16.17;70.45;100409.44;4999955;28;20665;-80
2022/03/26 09:49:37;;;;;;;38.80;24.13;;;;;;;16.08;69.62;100403.84;5002675;28;20704;-80
2022/03/26 09:52:07;;;;;;;39.17;23.70;;;;;;;16.27;69.93;100399.81;5003048;28;20245;-80
2022/03/26 09:54:37;;;;;;;39.03;23.97;;;;;;;16.53;69.37;100399.88;5002227;28;20191;-80
2022/03/26 09:57:07;;;;;;;43.40;23.83;;;;;;;16.54;69.24;100398.91;4994814;28;20222;-80
2022/03/26 09:59:37;;;;;;;39.67;24.20;;;;;;;16.58;68.92;100395.91;5000424;28;20191;-79
2022/03/26 10:02:06;;;;;;;41.30;24.97;;;;;;;16.44;66.25;100400.50;4996448;28;20199;-80
2022/03/26 10:04:38;;;;;;;37.53;23.43;;;;;;;16.22;67.67;100388.59;4998454;28;20324;-80
2022/03/26 10:07:07;;;;;;;43.23;24.50;;;;;;;16.88;68.39;100389.41;4995913;28;20199;-80
2022/03/26 10:09:40;;;;;;;41.77;24.40;;;;;;;17.00;67.07;100388.56;4997404;28;20227;-81
2022/03/26 10:12:11;;;;;;;38.90;23.60;;;;;;;17.14;66.60;100391.09;5001947;28;20256;-81
2022/03/26 10:14:55;;;;;;;41.10;23.23;;;;;;;17.56;63.96;100394.31;4992651;28;20194;-80
2022/03/26 10:17:28;;;;;;;44.97;25.43;;;;;;;17.73;60.90;100393.09;4999723;28;20199;-80
2022/03/26 10:20:01;;;;;;;37.80;23.30;;;;;;;17.78;59.64;100390.97;4993695;28;20206;-80
2022/03/26 10:22:34;;;;;;;39.43;23.83;;;;;;;18.07;58.04;100390.59;5003722;28;20195;-80
2022/03/26 10:25:06;;;;;;;35.03;22.63;;;;;;;18.01;58.47;100390.09;4986620;28;20204;-80
2022/03/26 10:27:38;;;;;;;41.50;23.63;;;;;;;17.78;59.23;100384.75;5025506;28;20668;-80
2022/03/26 10:30:14;;;;;;;36.00;23.50;;;;;;;17.68;62.10;100385.38;5031226;28;20224;-80
2022/03/26 10:32:49;;;;;;;38.27;23.43;;;;;;;17.72;61.04;100388.72;5027748;28;20198;-80
2022/03/26 10:35:21;;;;;;;37.03;22.67;;;;;;;18.03;59.34;100380.09;5028110;28;20197;-80
2022/03/26 10:37:58;;;;;;;37.07;23.00;;;;;;;18.26;57.91;100377.50;5025917;28;20202;-80
2022/03/26 10:40:31;;;;;;;37.27;22.33;;;;;;;18.30;56.90;100387.03;5025971;28;20197;-80
2022/03/26 10:43:06;;;;;;;38.87;23.23;;;;;;;18.82;56.04;100377.66;5011239;28;20249;-80
2022/03/26 10:45:39;;;;;;;37.87;21.63;;;;;;;18.86;54.58;100377.28;4952717;28;20193;-79
2022/03/26 10:48:10;;;;;;;35.93;22.73;;;;;;;18.87;50.79;100379.00;5011146;28;20195;-80
2022/03/26 10:50:42;;;;;;;32.37;21.70;;;;;;;18.80;51.30;100367.00;5003905;28;20214;-81
2022/03/26 10:53:14;;;;;;;32.83;20.53;;;;;;;18.69;51.02;100367.00;5002823;28;20202;-79
2022/03/26 10:55:44;;;;;;;31.53;19.53;;;;;;;19.49;48.56;100376.75;5011916;28;20237;-80
2022/03/26 10:58:13;;;;;;;31.90;19.27;;;;;;;19.60;47.96;100357.97;5003353;28;20226;-80
2022/03/26 11:00:48;;;;;;;29.97;18.80;;;;;;;19.20;48.03;100362.97;5011175;28;20195;-80
2022/03/26 11:03:17;;;;;;;35.10;20.27;;;;;;;19.07;50.17;100361.28;4948389;29;20324;-80
2022/03/26 11:05:47;;;;;;;33.73;18.73;;;;;;;19.42;48.51;100353.06;4942713;29;20288;-81
2022/03/26 11:08:21;;;;;;;32.40;19.20;;;;;;;19.58;47.42;100355.38;4907340;29;20229;-80
2022/03/26 11:10:51;;;;;;;27.47;16.40;;;;;;;19.48;47.40;100359.75;4911560;29;20277;-80
2022/03/26 11:13:28;;;;;;;28.77;17.30;;;;;;;19.63;45.68;100361.25;4906467;29;20210;-80
2022/03/26 11:16:02;;;;;;;26.60;16.07;;;;;;;19.48;45.25;100354.38;4910064;29;20205;-80
2022/03/26 11:18:47;;;;;;;24.83;16.97;;;;;;;19.65;44.90;100353.03;4891442;29;20202;-80
2022/03/26 11:21:51;;;;;;;28.60;15.83;;;;;;;20.23;44.62;100349.00;4835802;29;20723;-80
2022/03/26 11:28:09;;;;;;;29.67;17.13;;;;;;;20.76;44.17;100332.78;4860691;29;20206;-80